AirNav   Duncan Aviation - Near you to keep you flying
 
 627 users online  

KACQ Waseca Municipal Airport
Waseca, Minnesota, USA

GOING TO WASECA?


FAA INFORMATION EFFECTIVE 16 JUNE 2022

Location

FAA Identifier: ACQ
Lat/Long: 44-04-24.5000N 093-33-10.5990W
44-04.408333N 093-33.176650W
44.0734722,-93.5529442
(estimated)
Elevation: 1126.5 ft. / 343.4 m (surveyed)
Variation: 02E (2000)
From city: 2 miles W of WASECA, MN
Time zone: UTC -5 (UTC -6 during Standard Time)
Zip code: 56093

Airport Operations

Airport use: Open to the public
Control tower: no
ARTCC: MINNEAPOLIS CENTER
FSS: PRINCETON FLIGHT SERVICE STATION
NOTAMs facility: ACQ (NOTAM-D service available)
Attendance: MON-FRI 0800-1800
FOR SVC AFT HRS CALL (507) 351-1094.
Wind indicator: lighted
Segmented circle: no
Lights: MIRL RY 15/33 PRESET ON LOW INTST SS-SR; INCR INTST & ACTVT VASI RY 15/33; MIRL RY 15/33 - CTAF.
Beacon: white-green (lighted land airport)
Operates sunset to sunrise.

Airport Communications

CTAF/UNICOM: 122.8
WX AWOS-3: 118.425 (507-835-3657)
WX AWOS-3 at OWA (13 nm E): 128.325 (507-455-0642)
WX AWOS-3PT at MKT (18 nm NW): 118.175 (507-625-3726)
WX AWOS-3 at FBL (18 nm NE): 120.2 (507-332-2505)
  • APCH/DEP SVC PRVDD BY MINNEAPOLIS ARTCC ON FREQS 135.0/306.9 (MANKATO RCAG).

Airport Services

Fuel available: 100LL MOGAS
Parking: hangars and tiedowns
Airframe service: MAJOR
Powerplant service: MAJOR

Runway Information

Runway 15/33

Dimensions: 3399 x 75 ft. / 1036 x 23 m
Surface: asphalt, in good condition
Weight bearing capacity: 
Single wheel: 12.5
Runway edge lights: medium intensity
RUNWAY 15  RUNWAY 33
Latitude: 44-04.660023N44-04.156647N
Longitude: 093-33.345997W093-33.007340W
Elevation: 1126.5 ft.1119.3 ft.
Traffic pattern: leftleft
Runway heading: 152 magnetic, 154 true332 magnetic, 334 true
Markings: nonprecision, in good conditionnonprecision, in good condition
Visual slope indicator: 2-box VASI on left (2.50 degrees glide path)2-box VASI on left (2.50 degrees glide path)
Runway end identifier lights: nono
Touchdown point: yes, no lightsyes, no lights

Airport Ownership and Management from official FAA records

Ownership: Publicly-owned
Owner: CITY OF WASECA
508 SOUTH STATE ST
WASECA, MN 56093
Phone 507-835-9700
Manager: MAYNARD STENSRUD
35493 - 110TH ST
WASECA, MN 56093
Phone 507-835-5920

Airport Operational Statistics

Aircraft based on the field: 23
Single engine airplanes: 23
    
Aircraft operations: avg 47/day *
76% local general aviation
24% transient general aviation
* for 12-month period ending 31 July 2017

Additional Remarks

ULTRALIGHT TRAFFIC ON & INVOF ARPT.
FOR CD CTC MINNEAPOLIS ARTCC AT 651-463-5588.

Instrument Procedures

NOTE: All procedures below are presented as PDF files. If you need a reader for these files, you should download the free Adobe Reader.

NOT FOR NAVIGATION. Please procure official charts for flight.
FAA instrument procedures published for use from 16 June 2022 at 0901Z to 14 July 2022 at 0900z.

 
IAPs - Instrument Approach Procedures
RNAV (GPS) RWY 15   download (243KB)
RNAV (GPS) RWY 33   download (207KB)
NOTE: Special Alternate Minimums apply   download (46KB)
NOTE: Special Take-Off Minimums/Departure Procedures apply   download (156KB)

Other nearby airports with instrument procedures:

KOWA - Owatonna Degner Regional Airport (13 nm E)
KMKT - Mankato Regional Airport (18 nm NW)
KFBL - Faribault Municipal Airport-Liz Wall Strohfus Field (18 nm NE)
KAEL - Albert Lea Municipal Airport (25 nm S)
KTOB - Dodge Center Airport (31 nm E)
 
Loc | Ops | Rwys | IFR | FBO | Links
Com | Nav | Svcs | Stats | Notes
Area around KACQ (Waseca Municipal Airport)
 
Road maps at: MapQuest Bing Google
 
Aerial photo
WARNING: Photo may not be current or correct
Aerial photo of KACQ (Waseca Municipal Airport)
Photo taken 24-Sep-2008

Do you have a better or more recent aerial photo of Waseca Municipal Airport that you would like to share? If so, please send us your photo.

 
Sectional chart

 
Airport distance calculator
Flying to Waseca Municipal Airport? Find the distance to fly.

From to KACQ

Sunrise and sunset
Times for 30-Jun-2022
 Local
(UTC-5)
 Zulu
(UTC)
Morning civil twilight04:5909:59
Sunrise05:3510:35
Sunset21:0002:00
Evening civil twilight21:3702:37

Current date and time
Zulu (UTC)  30-Jun-2022 06:59:21
Local (UTC-5)  30-Jun-2022 01:59:21
 
METAR
KACQ 300635Z AUTO 19017G20KT 10SM CLR 25/16 A2991 RMK AO2
KOWA 
13nm E 
300653Z AUTO 18018G27KT 10SM 26/16 A2988 RMK AO2
KFBL 
18nm NE 
300655Z AUTO 17014G22KT 10SM CLR 26/16 A2986 RMK AO2 LTG DSNT NW
KMKT 
18nm NW 
300556Z AUTO 20013G23KT 10SM CLR 27/16 A2987 RMK AO2 SLP108 T02720161 10322 20272 403440150 50007
TAF
KMKT 
18nm NW 
300525Z 3006/0106 21014G22KT P6SM FEW250 WS020/20050KT FM301000 20013G20KT P6SM OVC150 TEMPO 3010/3013 -RA BKN080 FM301600 23012KT P6SM BKN150
NOTAMs
Click for the latest NOTAMs
NOTAMs are issued by the DoD/FAA and will open in a separate window not controlled by AirNav.

 

 
 

FBO, Fuel Providers, and Aircraft Ground Support

  
 Business Name 
 
 Contact 
 
 Services / Description 
 
Fuel Prices
 
Comments
  
Stensrud Aviation 507-835-5920
no information available

If you are affiliated with Stensrud Aviation and would like to show here your services, contact info, web link, logo, and more, click here
100LL Mogas
AS $5.95 --- 
SS --- $4.65 
 Updated 23-Jun-2022
 
   write
AS=Assisted/Self Service
SS=Self service
Update Fuel Prices
 

Would you like to see your business listed on this page?

 If your business provides an interesting product or service to pilots, flight crews, aircraft, or users of the Waseca Municipal Airport, you should consider listing it here.  To start the listing process, click on the button below
 
Add a business
 

Other Pages about Waseca Municipal Airport

Update a link
 
Copyright © AirNav, LLC. All rights reserved. Privacy Policy  Contact